sensor_id;sensor_type;location;lat;lon;timestamp;P1;durP1;ratioP1;P2;durP2;ratioP2
39264;SDS011;42646;51.910;7.724;2024-01-30T00:01:30;10.85;;;8.52;;
39264;SDS011;42646;51.910;7.724;2024-01-30T00:03:58;11.73;;;8.40;;
39264;SDS011;42646;51.910;7.724;2024-01-30T00:06:26;11.40;;;8.55;;
39264;SDS011;42646;51.910;7.724;2024-01-30T00:08:54;12.55;;;8.68;;
39264;SDS011;42646;51.910;7.724;2024-01-30T00:11:21;10.82;;;7.43;;
39264;SDS011;42646;51.910;7.724;2024-01-30T00:13:51;12.40;;;8.27;;
39264;SDS011;42646;51.910;7.724;2024-01-30T00:16:20;10.88;;;7.90;;
39264;SDS011;42646;51.910;7.724;2024-01-30T00:18:49;11.57;;;8.43;;
39264;SDS011;42646;51.910;7.724;2024-01-30T00:21:17;13.40;;;8.98;;
39264;SDS011;42646;51.910;7.724;2024-01-30T00:23:45;11.90;;;8.50;;
39264;SDS011;42646;51.910;7.724;2024-01-30T00:26:13;10.38;;;8.32;;
39264;SDS011;42646;51.910;7.724;2024-01-30T00:28:41;14.05;;;8.65;;
39264;SDS011;42646;51.910;7.724;2024-01-30T00:31:10;11.02;;;8.25;;
39264;SDS011;42646;51.910;7.724;2024-01-30T00:33:38;11.43;;;8.60;;
39264;SDS011;42646;51.910;7.724;2024-01-30T00:36:08;10.88;;;8.20;;
39264;SDS011;42646;51.910;7.724;2024-01-30T00:38:37;10.70;;;7.70;;
39264;SDS011;42646;51.910;7.724;2024-01-30T00:41:05;9.93;;;7.75;;
39264;SDS011;42646;51.910;7.724;2024-01-30T00:43:32;11.73;;;7.95;;
39264;SDS011;42646;51.910;7.724;2024-01-30T00:46:00;11.05;;;7.90;;
39264;SDS011;42646;51.910;7.724;2024-01-30T00:48:28;10.38;;;8.27;;
39264;SDS011;42646;51.910;7.724;2024-01-30T00:50:56;10.90;;;7.88;;
39264;SDS011;42646;51.910;7.724;2024-01-30T00:53:25;10.43;;;7.82;;
39264;SDS011;42646;51.910;7.724;2024-01-30T00:55:53;11.68;;;8.27;;
39264;SDS011;42646;51.910;7.724;2024-01-30T00:58:21;12.80;;;8.55;;
39264;SDS011;42646;51.910;7.724;2024-01-30T01:00:49;11.70;;;8.40;;
39264;SDS011;42646;51.910;7.724;2024-01-30T01:03:16;11.20;;;8.95;;
39264;SDS011;42646;51.910;7.724;2024-01-30T01:05:44;10.55;;;8.25;;
39264;SDS011;42646;51.910;7.724;2024-01-30T01:08:12;10.90;;;7.97;;
39264;SDS011;42646;51.910;7.724;2024-01-30T01:10:42;11.80;;;8.10;;
39264;SDS011;42646;51.910;7.724;2024-01-30T01:13:10;11.60;;;7.68;;
39264;SDS011;42646;51.910;7.724;2024-01-30T01:15:38;11.45;;;8.43;;
39264;SDS011;42646;51.910;7.724;2024-01-30T01:18:06;11.02;;;8.50;;
39264;SDS011;42646;51.910;7.724;2024-01-30T01:20:34;11.52;;;7.90;;
39264;SDS011;42646;51.910;7.724;2024-01-30T01:23:02;13.05;;;8.30;;
39264;SDS011;42646;51.910;7.724;2024-01-30T01:25:29;11.00;;;8.05;;
39264;SDS011;42646;51.910;7.724;2024-01-30T01:27:59;13.48;;;8.25;;
39264;SDS011;42646;51.910;7.724;2024-01-30T01:30:27;12.02;;;8.15;;
39264;SDS011;42646;51.910;7.724;2024-01-30T01:32:56;11.23;;;8.20;;
39264;SDS011;42646;51.910;7.724;2024-01-30T01:35:27;12.33;;;8.13;;
39264;SDS011;42646;51.910;7.724;2024-01-30T01:37:55;12.48;;;8.38;;
39264;SDS011;42646;51.910;7.724;2024-01-30T01:40:25;12.55;;;7.93;;
39264;SDS011;42646;51.910;7.724;2024-01-30T01:42:54;12.77;;;8.30;;
39264;SDS011;42646;51.910;7.724;2024-01-30T01:45:24;10.63;;;7.65;;
39264;SDS011;42646;51.910;7.724;2024-01-30T01:47:52;11.63;;;8.57;;
39264;SDS011;42646;51.910;7.724;2024-01-30T01:50:20;11.57;;;8.15;;
39264;SDS011;42646;51.910;7.724;2024-01-30T01:52:49;12.43;;;8.73;;
39264;SDS011;42646;51.910;7.724;2024-01-30T01:55:18;13.13;;;8.77;;
39264;SDS011;42646;51.910;7.724;2024-01-30T01:57:50;11.90;;;8.30;;
39264;SDS011;42646;51.910;7.724;2024-01-30T02:00:20;12.00;;;8.07;;
39264;SDS011;42646;51.910;7.724;2024-01-30T02:02:49;10.75;;;8.13;;
39264;SDS011;42646;51.910;7.724;2024-01-30T02:05:17;11.63;;;8.60;;
39264;SDS011;42646;51.910;7.724;2024-01-30T02:07:46;10.20;;;7.97;;
39264;SDS011;42646;51.910;7.724;2024-01-30T02:10:14;12.15;;;8.57;;
39264;SDS011;42646;51.910;7.724;2024-01-30T02:12:42;12.30;;;8.82;;
39264;SDS011;42646;51.910;7.724;2024-01-30T02:15:12;12.15;;;8.90;;
39264;SDS011;42646;51.910;7.724;2024-01-30T02:17:41;12.10;;;8.47;;
39264;SDS011;42646;51.910;7.724;2024-01-30T02:20:10;11.25;;;8.45;;
39264;SDS011;42646;51.910;7.724;2024-01-30T02:22:40;12.60;;;9.05;;
39264;SDS011;42646;51.910;7.724;2024-01-30T02:25:10;14.20;;;8.57;;
39264;SDS011;42646;51.910;7.724;2024-01-30T02:27:38;12.07;;;8.43;;
39264;SDS011;42646;51.910;7.724;2024-01-30T02:30:06;12.23;;;7.82;;
39264;SDS011;42646;51.910;7.724;2024-01-30T02:32:34;11.77;;;8.57;;
39264;SDS011;42646;51.910;7.724;2024-01-30T02:35:02;13.20;;;8.15;;
39264;SDS011;42646;51.910;7.724;2024-01-30T02:37:30;12.32;;;8.43;;
39264;SDS011;42646;51.910;7.724;2024-01-30T02:39:59;14.02;;;8.70;;
39264;SDS011;42646;51.910;7.724;2024-01-30T02:42:27;11.35;;;8.15;;
39264;SDS011;42646;51.910;7.724;2024-01-30T02:44:55;12.68;;;8.60;;
39264;SDS011;42646;51.910;7.724;2024-01-30T02:47:23;15.43;;;8.63;;
39264;SDS011;42646;51.910;7.724;2024-01-30T02:49:50;11.20;;;8.02;;
39264;SDS011;42646;51.910;7.724;2024-01-30T02:52:21;12.75;;;8.55;;
39264;SDS011;42646;51.910;7.724;2024-01-30T02:54:49;12.05;;;8.10;;
39264;SDS011;42646;51.910;7.724;2024-01-30T02:57:18;10.50;;;8.20;;
39264;SDS011;42646;51.910;7.724;2024-01-30T02:59:46;12.68;;;8.30;;
39264;SDS011;42646;51.910;7.724;2024-01-30T03:02:14;11.38;;;8.52;;
39264;SDS011;42646;51.910;7.724;2024-01-30T03:04:42;11.68;;;7.82;;
39264;SDS011;42646;51.910;7.724;2024-01-30T03:07:09;12.45;;;8.48;;
39264;SDS011;42646;51.910;7.724;2024-01-30T03:09:37;13.45;;;8.73;;
39264;SDS011;42646;51.910;7.724;2024-01-30T03:12:05;12.52;;;8.05;;
39264;SDS011;42646;51.910;7.724;2024-01-30T03:14:38;13.40;;;8.57;;
39264;SDS011;42646;51.910;7.724;2024-01-30T03:17:05;11.50;;;9.02;;
39264;SDS011;42646;51.910;7.724;2024-01-30T03:19:33;13.23;;;8.38;;
39264;SDS011;42646;51.910;7.724;2024-01-30T03:22:01;11.98;;;8.48;;
39264;SDS011;42646;51.910;7.724;2024-01-30T03:24:28;12.07;;;8.10;;
39264;SDS011;42646;51.910;7.724;2024-01-30T03:26:56;11.80;;;7.75;;
39264;SDS011;42646;51.910;7.724;2024-01-30T03:29:24;10.65;;;7.88;;
39264;SDS011;42646;51.910;7.724;2024-01-30T03:31:53;9.85;;;7.57;;
39264;SDS011;42646;51.910;7.724;2024-01-30T03:34:21;11.80;;;7.63;;
39264;SDS011;42646;51.910;7.724;2024-01-30T03:36:49;12.27;;;8.05;;
39264;SDS011;42646;51.910;7.724;2024-01-30T03:39:16;12.00;;;7.88;;
39264;SDS011;42646;51.910;7.724;2024-01-30T03:41:44;11.55;;;8.02;;
39264;SDS011;42646;51.910;7.724;2024-01-30T03:44:11;12.07;;;7.90;;
39264;SDS011;42646;51.910;7.724;2024-01-30T03:46:39;10.27;;;7.40;;
39264;SDS011;42646;51.910;7.724;2024-01-30T03:49:09;11.40;;;7.65;;
39264;SDS011;42646;51.910;7.724;2024-01-30T03:51:37;14.45;;;8.40;;
39264;SDS011;42646;51.910;7.724;2024-01-30T03:54:05;11.60;;;8.07;;
39264;SDS011;42646;51.910;7.724;2024-01-30T03:56:33;11.18;;;7.75;;
39264;SDS011;42646;51.910;7.724;2024-01-30T03:59:01;12.25;;;8.35;;
39264;SDS011;42646;51.910;7.724;2024-01-30T04:01:29;11.57;;;7.72;;
39264;SDS011;42646;51.910;7.724;2024-01-30T04:03:57;13.23;;;8.23;;
39264;SDS011;42646;51.910;7.724;2024-01-30T04:06:26;13.05;;;8.30;;
39264;SDS011;42646;51.910;7.724;2024-01-30T04:08:54;11.73;;;8.18;;
39264;SDS011;42646;51.910;7.724;2024-01-30T04:11:21;10.63;;;7.60;;
39264;SDS011;42646;51.910;7.724;2024-01-30T04:13:49;13.77;;;7.97;;
39264;SDS011;42646;51.910;7.724;2024-01-30T04:16:20;12.00;;;8.18;;
39264;SDS011;42646;51.910;7.724;2024-01-30T04:18:49;12.73;;;8.65;;
39264;SDS011;42646;51.910;7.724;2024-01-30T04:21:16;11.32;;;8.10;;
39264;SDS011;42646;51.910;7.724;2024-01-30T04:23:46;10.48;;;7.65;;
39264;SDS011;42646;51.910;7.724;2024-01-30T04:26:14;11.90;;;8.70;;
39264;SDS011;42646;51.910;7.724;2024-01-30T04:28:43;11.55;;;7.75;;
39264;SDS011;42646;51.910;7.724;2024-01-30T04:31:12;10.82;;;7.57;;
39264;SDS011;42646;51.910;7.724;2024-01-30T04:33:39;11.20;;;7.70;;
39264;SDS011;42646;51.910;7.724;2024-01-30T04:36:08;12.30;;;8.18;;
39264;SDS011;42646;51.910;7.724;2024-01-30T04:38:37;12.98;;;8.27;;
39264;SDS011;42646;51.910;7.724;2024-01-30T04:41:06;12.55;;;8.05;;
39264;SDS011;42646;51.910;7.724;2024-01-30T04:43:34;11.73;;;7.82;;
39264;SDS011;42646;51.910;7.724;2024-01-30T04:46:02;11.55;;;7.75;;
39264;SDS011;42646;51.910;7.724;2024-01-30T04:48:31;10.73;;;7.65;;
39264;SDS011;42646;51.910;7.724;2024-01-30T04:50:59;11.45;;;7.50;;
39264;SDS011;42646;51.910;7.724;2024-01-30T04:53:29;11.95;;;8.02;;
39264;SDS011;42646;51.910;7.724;2024-01-30T04:55:57;11.95;;;7.95;;
39264;SDS011;42646;51.910;7.724;2024-01-30T04:58:26;12.88;;;8.20;;
39264;SDS011;42646;51.910;7.724;2024-01-30T05:00:54;11.70;;;7.68;;
39264;SDS011;42646;51.910;7.724;2024-01-30T05:03:24;10.43;;;7.70;;
39264;SDS011;42646;51.910;7.724;2024-01-30T05:05:51;11.35;;;8.15;;
39264;SDS011;42646;51.910;7.724;2024-01-30T05:08:19;10.85;;;7.93;;
39264;SDS011;42646;51.910;7.724;2024-01-30T05:10:47;12.05;;;7.85;;
39264;SDS011;42646;51.910;7.724;2024-01-30T05:13:15;10.65;;;7.70;;
39264;SDS011;42646;51.910;7.724;2024-01-30T05:15:44;12.00;;;7.82;;
39264;SDS011;42646;51.910;7.724;2024-01-30T05:18:12;11.02;;;7.50;;
39264;SDS011;42646;51.910;7.724;2024-01-30T05:20:40;9.13;;;6.88;;
39264;SDS011;42646;51.910;7.724;2024-01-30T05:23:07;10.60;;;7.25;;
39264;SDS011;42646;51.910;7.724;2024-01-30T05:25:35;10.07;;;7.28;;
39264;SDS011;42646;51.910;7.724;2024-01-30T05:28:03;11.40;;;7.85;;
39264;SDS011;42646;51.910;7.724;2024-01-30T05:30:31;10.35;;;7.38;;
39264;SDS011;42646;51.910;7.724;2024-01-30T05:33:00;12.25;;;8.10;;
39264;SDS011;42646;51.910;7.724;2024-01-30T05:35:28;9.40;;;6.93;;
39264;SDS011;42646;51.910;7.724;2024-01-30T05:37:56;13.30;;;8.40;;
39264;SDS011;42646;51.910;7.724;2024-01-30T05:40:24;10.60;;;7.70;;
39264;SDS011;42646;51.910;7.724;2024-01-30T05:42:52;11.00;;;7.15;;
39264;SDS011;42646;51.910;7.724;2024-01-30T05:45:20;11.80;;;7.65;;
39264;SDS011;42646;51.910;7.724;2024-01-30T05:47:49;11.10;;;8.02;;
39264;SDS011;42646;51.910;7.724;2024-01-30T05:50:18;11.38;;;7.30;;
39264;SDS011;42646;51.910;7.724;2024-01-30T05:52:46;11.70;;;7.72;;
39264;SDS011;42646;51.910;7.724;2024-01-30T05:55:14;12.35;;;7.90;;
39264;SDS011;42646;51.910;7.724;2024-01-30T05:57:42;11.23;;;7.70;;
39264;SDS011;42646;51.910;7.724;2024-01-30T06:00:10;9.93;;;6.95;;
39264;SDS011;42646;51.910;7.724;2024-01-30T06:02:38;9.52;;;7.05;;
39264;SDS011;42646;51.910;7.724;2024-01-30T06:05:06;11.57;;;7.72;;
39264;SDS011;42646;51.910;7.724;2024-01-30T06:07:35;10.13;;;7.53;;
39264;SDS011;42646;51.910;7.724;2024-01-30T06:10:04;11.75;;;7.47;;
39264;SDS011;42646;51.910;7.724;2024-01-30T06:12:33;11.70;;;7.82;;
39264;SDS011;42646;51.910;7.724;2024-01-30T06:15:01;12.40;;;8.65;;
39264;SDS011;42646;51.910;7.724;2024-01-30T06:17:29;14.18;;;8.35;;
39264;SDS011;42646;51.910;7.724;2024-01-30T06:19:56;10.50;;;7.50;;
39264;SDS011;42646;51.910;7.724;2024-01-30T06:22:24;11.57;;;7.40;;
39264;SDS011;42646;51.910;7.724;2024-01-30T06:24:53;10.85;;;7.05;;
39264;SDS011;42646;51.910;7.724;2024-01-30T06:27:21;10.68;;;6.90;;
39264;SDS011;42646;51.910;7.724;2024-01-30T06:29:49;13.60;;;7.90;;
39264;SDS011;42646;51.910;7.724;2024-01-30T06:32:17;14.40;;;8.18;;
39264;SDS011;42646;51.910;7.724;2024-01-30T06:34:45;12.00;;;7.95;;
39264;SDS011;42646;51.910;7.724;2024-01-30T06:37:12;11.73;;;7.43;;
39264;SDS011;42646;51.910;7.724;2024-01-30T06:39:40;10.27;;;7.13;;
39264;SDS011;42646;51.910;7.724;2024-01-30T06:42:09;11.85;;;7.80;;
39264;SDS011;42646;51.910;7.724;2024-01-30T06:44:38;11.95;;;7.53;;
39264;SDS011;42646;51.910;7.724;2024-01-30T06:47:06;10.38;;;7.60;;
39264;SDS011;42646;51.910;7.724;2024-01-30T06:49:34;12.40;;;7.60;;
39264;SDS011;42646;51.910;7.724;2024-01-30T06:52:04;10.63;;;7.05;;
39264;SDS011;42646;51.910;7.724;2024-01-30T06:54:32;9.68;;;7.05;;
39264;SDS011;42646;51.910;7.724;2024-01-30T06:57:00;12.15;;;7.90;;
39264;SDS011;42646;51.910;7.724;2024-01-30T06:59:31;10.05;;;7.55;;
39264;SDS011;42646;51.910;7.724;2024-01-30T07:01:58;10.35;;;6.90;;
39264;SDS011;42646;51.910;7.724;2024-01-30T07:04:26;11.32;;;7.10;;
39264;SDS011;42646;51.910;7.724;2024-01-30T07:06:54;10.13;;;7.60;;
39264;SDS011;42646;51.910;7.724;2024-01-30T07:09:22;10.27;;;7.03;;
39264;SDS011;42646;51.910;7.724;2024-01-30T07:11:50;10.18;;;7.22;;
39264;SDS011;42646;51.910;7.724;2024-01-30T07:14:18;12.05;;;7.70;;
39264;SDS011;42646;51.910;7.724;2024-01-30T07:16:47;12.07;;;7.78;;
39264;SDS011;42646;51.910;7.724;2024-01-30T07:19:14;9.85;;;7.20;;
39264;SDS011;42646;51.910;7.724;2024-01-30T07:21:43;11.07;;;7.25;;
39264;SDS011;42646;51.910;7.724;2024-01-30T07:24:10;10.10;;;7.25;;
39264;SDS011;42646;51.910;7.724;2024-01-30T07:26:38;10.43;;;7.13;;
39264;SDS011;42646;51.910;7.724;2024-01-30T07:29:06;10.07;;;7.60;;
39264;SDS011;42646;51.910;7.724;2024-01-30T07:31:34;10.60;;;7.57;;
39264;SDS011;42646;51.910;7.724;2024-01-30T07:34:03;10.45;;;7.50;;
39264;SDS011;42646;51.910;7.724;2024-01-30T07:36:31;12.15;;;7.75;;
39264;SDS011;42646;51.910;7.724;2024-01-30T07:38:59;10.40;;;7.65;;
39264;SDS011;42646;51.910;7.724;2024-01-30T07:41:27;12.50;;;7.88;;
39264;SDS011;42646;51.910;7.724;2024-01-30T07:43:55;10.93;;;7.10;;
39264;SDS011;42646;51.910;7.724;2024-01-30T07:46:22;11.23;;;7.32;;
39264;SDS011;42646;51.910;7.724;2024-01-30T07:48:50;9.15;;;7.10;;
39264;SDS011;42646;51.910;7.724;2024-01-30T07:51:22;11.00;;;6.80;;
39264;SDS011;42646;51.910;7.724;2024-01-30T07:53:49;11.35;;;7.63;;
39264;SDS011;42646;51.910;7.724;2024-01-30T07:56:17;11.57;;;7.82;;
39264;SDS011;42646;51.910;7.724;2024-01-30T07:58:45;10.60;;;7.40;;
39264;SDS011;42646;51.910;7.724;2024-01-30T08:01:14;10.90;;;7.10;;
39264;SDS011;42646;51.910;7.724;2024-01-30T08:03:42;11.25;;;7.47;;
39264;SDS011;42646;51.910;7.724;2024-01-30T08:06:10;9.07;;;6.88;;
39264;SDS011;42646;51.910;7.724;2024-01-30T08:08:39;11.52;;;7.25;;
39264;SDS011;42646;51.910;7.724;2024-01-30T08:11:07;11.23;;;7.72;;
39264;SDS011;42646;51.910;7.724;2024-01-30T08:13:35;11.65;;;7.43;;
39264;SDS011;42646;51.910;7.724;2024-01-30T08:16:03;9.20;;;7.03;;
39264;SDS011;42646;51.910;7.724;2024-01-30T08:18:31;9.95;;;7.82;;
39264;SDS011;42646;51.910;7.724;2024-01-30T08:20:59;10.52;;;6.93;;
39264;SDS011;42646;51.910;7.724;2024-01-30T08:23:26;10.43;;;6.90;;
39264;SDS011;42646;51.910;7.724;2024-01-30T08:25:56;9.20;;;7.20;;
39264;SDS011;42646;51.910;7.724;2024-01-30T08:28:23;11.77;;;7.47;;
39264;SDS011;42646;51.910;7.724;2024-01-30T08:30:52;10.15;;;7.15;;
39264;SDS011;42646;51.910;7.724;2024-01-30T08:33:20;10.10;;;7.47;;
39264;SDS011;42646;51.910;7.724;2024-01-30T08:35:48;9.65;;;7.15;;
39264;SDS011;42646;51.910;7.724;2024-01-30T08:38:16;9.73;;;6.63;;
39264;SDS011;42646;51.910;7.724;2024-01-30T08:40:44;10.93;;;7.10;;
39264;SDS011;42646;51.910;7.724;2024-01-30T08:43:13;10.68;;;6.80;;
39264;SDS011;42646;51.910;7.724;2024-01-30T08:45:41;10.55;;;6.45;;
39264;SDS011;42646;51.910;7.724;2024-01-30T08:48:11;9.95;;;6.88;;
39264;SDS011;42646;51.910;7.724;2024-01-30T08:50:39;10.65;;;7.03;;
39264;SDS011;42646;51.910;7.724;2024-01-30T08:53:07;9.75;;;6.63;;
39264;SDS011;42646;51.910;7.724;2024-01-30T08:55:34;9.32;;;6.70;;
39264;SDS011;42646;51.910;7.724;2024-01-30T08:58:02;12.25;;;7.57;;
39264;SDS011;42646;51.910;7.724;2024-01-30T09:00:32;10.05;;;7.03;;
39264;SDS011;42646;51.910;7.724;2024-01-30T09:03:00;9.25;;;6.90;;
39264;SDS011;42646;51.910;7.724;2024-01-30T09:05:28;10.27;;;6.55;;
39264;SDS011;42646;51.910;7.724;2024-01-30T09:07:56;9.88;;;6.35;;
39264;SDS011;42646;51.910;7.724;2024-01-30T09:10:24;12.15;;;6.95;;
39264;SDS011;42646;51.910;7.724;2024-01-30T09:12:52;9.65;;;6.72;;
39264;SDS011;42646;51.910;7.724;2024-01-30T09:15:19;9.48;;;6.72;;
39264;SDS011;42646;51.910;7.724;2024-01-30T09:17:52;10.73;;;7.28;;
39264;SDS011;42646;51.910;7.724;2024-01-30T09:20:20;9.20;;;6.72;;
39264;SDS011;42646;51.910;7.724;2024-01-30T09:22:48;10.07;;;7.43;;
39264;SDS011;42646;51.910;7.724;2024-01-30T09:25:16;9.55;;;6.50;;
39264;SDS011;42646;51.910;7.724;2024-01-30T09:27:46;9.23;;;6.50;;
39264;SDS011;42646;51.910;7.724;2024-01-30T09:30:14;8.25;;;6.22;;
39264;SDS011;42646;51.910;7.724;2024-01-30T09:32:42;8.85;;;6.22;;
39264;SDS011;42646;51.910;7.724;2024-01-30T09:35:11;11.68;;;6.88;;
39264;SDS011;42646;51.910;7.724;2024-01-30T09:37:40;9.85;;;6.93;;
39264;SDS011;42646;51.910;7.724;2024-01-30T09:40:08;9.38;;;6.55;;
39264;SDS011;42646;51.910;7.724;2024-01-30T09:42:36;9.60;;;6.13;;
39264;SDS011;42646;51.910;7.724;2024-01-30T09:45:04;10.32;;;6.88;;
39264;SDS011;42646;51.910;7.724;2024-01-30T09:47:34;9.88;;;6.65;;
39264;SDS011;42646;51.910;7.724;2024-01-30T09:50:08;11.77;;;7.00;;
39264;SDS011;42646;51.910;7.724;2024-01-30T09:52:38;10.93;;;7.68;;
39264;SDS011;42646;51.910;7.724;2024-01-30T09:55:06;10.35;;;7.38;;
39264;SDS011;42646;51.910;7.724;2024-01-30T09:57:35;9.27;;;6.75;;
39264;SDS011;42646;51.910;7.724;2024-01-30T10:00:03;8.63;;;6.35;;
39264;SDS011;42646;51.910;7.724;2024-01-30T10:02:39;10.80;;;6.88;;
39264;SDS011;42646;51.910;7.724;2024-01-30T10:05:08;9.85;;;6.70;;
39264;SDS011;42646;51.910;7.724;2024-01-30T10:07:37;9.35;;;6.88;;
39264;SDS011;42646;51.910;7.724;2024-01-30T10:10:05;10.43;;;6.72;;
39264;SDS011;42646;51.910;7.724;2024-01-30T10:12:34;9.00;;;6.90;;
39264;SDS011;42646;51.910;7.724;2024-01-30T10:15:02;10.18;;;7.03;;
39264;SDS011;42646;51.910;7.724;2024-01-30T10:17:30;8.40;;;6.10;;
39264;SDS011;42646;51.910;7.724;2024-01-30T10:19:59;11.48;;;7.07;;
39264;SDS011;42646;51.910;7.724;2024-01-30T10:22:28;10.48;;;7.05;;
39264;SDS011;42646;51.910;7.724;2024-01-30T10:24:58;9.98;;;6.75;;
39264;SDS011;42646;51.910;7.724;2024-01-30T10:27:31;13.20;;;6.85;;
39264;SDS011;42646;51.910;7.724;2024-01-30T10:29:59;10.38;;;6.55;;
39264;SDS011;42646;51.910;7.724;2024-01-30T10:32:26;8.75;;;6.20;;
39264;SDS011;42646;51.910;7.724;2024-01-30T10:34:54;9.20;;;6.32;;
39264;SDS011;42646;51.910;7.724;2024-01-30T10:37:23;9.40;;;6.15;;
39264;SDS011;42646;51.910;7.724;2024-01-30T10:39:53;11.45;;;6.65;;
39264;SDS011;42646;51.910;7.724;2024-01-30T10:42:25;8.45;;;6.15;;
39264;SDS011;42646;51.910;7.724;2024-01-30T10:44:56;10.15;;;6.55;;
39264;SDS011;42646;51.910;7.724;2024-01-30T10:47:28;10.23;;;6.15;;
39264;SDS011;42646;51.910;7.724;2024-01-30T10:49:56;9.85;;;6.43;;
39264;SDS011;42646;51.910;7.724;2024-01-30T10:52:25;8.88;;;6.38;;
39264;SDS011;42646;51.910;7.724;2024-01-30T10:54:54;9.82;;;6.38;;
39264;SDS011;42646;51.910;7.724;2024-01-30T10:57:25;10.25;;;6.18;;
39264;SDS011;42646;51.910;7.724;2024-01-30T10:59:55;10.68;;;6.43;;
39264;SDS011;42646;51.910;7.724;2024-01-30T11:02:24;9.13;;;5.95;;
39264;SDS011;42646;51.910;7.724;2024-01-30T11:04:54;8.57;;;6.25;;
39264;SDS011;42646;51.910;7.724;2024-01-30T11:07:25;9.20;;;5.70;;
39264;SDS011;42646;51.910;7.724;2024-01-30T11:09:59;9.70;;;6.22;;
39264;SDS011;42646;51.910;7.724;2024-01-30T11:12:30;10.23;;;6.13;;
39264;SDS011;42646;51.910;7.724;2024-01-30T11:17:41;9.40;;;5.95;;
39264;SDS011;42646;51.910;7.724;2024-01-30T11:20:11;10.48;;;6.00;;
39264;SDS011;42646;51.910;7.724;2024-01-30T11:22:41;8.30;;;6.18;;
39264;SDS011;42646;51.910;7.724;2024-01-30T11:25:13;9.82;;;5.57;;
39264;SDS011;42646;51.910;7.724;2024-01-30T11:27:44;9.27;;;5.80;;
39264;SDS011;42646;51.910;7.724;2024-01-30T11:30:20;11.05;;;6.47;;
39264;SDS011;42646;51.910;7.724;2024-01-30T11:32:59;8.98;;;5.85;;
39264;SDS011;42646;51.910;7.724;2024-01-30T11:35:31;9.05;;;6.03;;
39264;SDS011;42646;51.910;7.724;2024-01-30T11:38:00;8.50;;;5.53;;
39264;SDS011;42646;51.910;7.724;2024-01-30T11:40:29;8.60;;;5.90;;
39264;SDS011;42646;51.910;7.724;2024-01-30T11:43:01;11.50;;;5.82;;
39264;SDS011;42646;51.910;7.724;2024-01-30T11:45:30;10.00;;;5.82;;
39264;SDS011;42646;51.910;7.724;2024-01-30T11:47:59;9.48;;;5.40;;
39264;SDS011;42646;51.910;7.724;2024-01-30T11:50:29;8.00;;;5.60;;
39264;SDS011;42646;51.910;7.724;2024-01-30T11:52:58;11.52;;;5.97;;
39264;SDS011;42646;51.910;7.724;2024-01-30T11:55:26;10.52;;;6.18;;
39264;SDS011;42646;51.910;7.724;2024-01-30T11:58:02;10.35;;;5.68;;
39264;SDS011;42646;51.910;7.724;2024-01-30T12:00:30;9.73;;;5.85;;
39264;SDS011;42646;51.910;7.724;2024-01-30T12:02:59;9.25;;;5.65;;
39264;SDS011;42646;51.910;7.724;2024-01-30T12:05:28;6.85;;;5.32;;
39264;SDS011;42646;51.910;7.724;2024-01-30T12:07:57;7.28;;;5.35;;
39264;SDS011;42646;51.910;7.724;2024-01-30T12:10:27;9.75;;;6.00;;
39264;SDS011;42646;51.910;7.724;2024-01-30T12:12:55;10.10;;;6.00;;
39264;SDS011;42646;51.910;7.724;2024-01-30T12:15:26;9.20;;;5.38;;
39264;SDS011;42646;51.910;7.724;2024-01-30T12:18:03;9.63;;;5.57;;
39264;SDS011;42646;51.910;7.724;2024-01-30T12:20:31;10.05;;;6.30;;
39264;SDS011;42646;51.910;7.724;2024-01-30T12:22:59;11.90;;;6.03;;
39264;SDS011;42646;51.910;7.724;2024-01-30T12:25:27;10.13;;;5.32;;
39264;SDS011;42646;51.910;7.724;2024-01-30T12:27:55;10.15;;;5.05;;
39264;SDS011;42646;51.910;7.724;2024-01-30T12:30:24;10.20;;;5.82;;
39264;SDS011;42646;51.910;7.724;2024-01-30T12:32:53;7.55;;;5.03;;
39264;SDS011;42646;51.910;7.724;2024-01-30T12:35:21;10.27;;;5.43;;
39264;SDS011;42646;51.910;7.724;2024-01-30T12:37:52;7.68;;;4.95;;
39264;SDS011;42646;51.910;7.724;2024-01-30T12:40:20;8.55;;;5.50;;
39264;SDS011;42646;51.910;7.724;2024-01-30T12:42:47;8.95;;;5.57;;
39264;SDS011;42646;51.910;7.724;2024-01-30T12:45:16;14.13;;;6.28;;
39264;SDS011;42646;51.910;7.724;2024-01-30T12:47:47;11.25;;;6.15;;
39264;SDS011;42646;51.910;7.724;2024-01-30T12:50:16;11.48;;;5.35;;
39264;SDS011;42646;51.910;7.724;2024-01-30T12:52:44;10.40;;;5.85;;
39264;SDS011;42646;51.910;7.724;2024-01-30T12:55:15;11.38;;;6.45;;
39264;SDS011;42646;51.910;7.724;2024-01-30T12:57:44;11.50;;;6.15;;
39264;SDS011;42646;51.910;7.724;2024-01-30T13:00:12;7.35;;;5.38;;
39264;SDS011;42646;51.910;7.724;2024-01-30T13:02:40;10.60;;;5.97;;
39264;SDS011;42646;51.910;7.724;2024-01-30T13:05:09;12.43;;;6.10;;
39264;SDS011;42646;51.910;7.724;2024-01-30T13:07:38;9.52;;;5.68;;
39264;SDS011;42646;51.910;7.724;2024-01-30T13:10:06;8.60;;;5.68;;
39264;SDS011;42646;51.910;7.724;2024-01-30T13:12:34;9.30;;;5.22;;
39264;SDS011;42646;51.910;7.724;2024-01-30T13:15:03;10.15;;;5.10;;
39264;SDS011;42646;51.910;7.724;2024-01-30T13:17:32;8.93;;;5.68;;
39264;SDS011;42646;51.910;7.724;2024-01-30T13:20:00;10.25;;;5.93;;
39264;SDS011;42646;51.910;7.724;2024-01-30T13:22:36;9.20;;;6.15;;
39264;SDS011;42646;51.910;7.724;2024-01-30T13:25:06;17.00;;;5.88;;
39264;SDS011;42646;51.910;7.724;2024-01-30T13:27:35;9.05;;;5.70;;
39264;SDS011;42646;51.910;7.724;2024-01-30T13:30:03;10.27;;;6.00;;
39264;SDS011;42646;51.910;7.724;2024-01-30T13:32:31;12.05;;;5.85;;
39264;SDS011;42646;51.910;7.724;2024-01-30T13:34:59;9.10;;;5.93;;
39264;SDS011;42646;51.910;7.724;2024-01-30T13:37:27;10.45;;;6.03;;
39264;SDS011;42646;51.910;7.724;2024-01-30T13:39:56;10.05;;;6.22;;
39264;SDS011;42646;51.910;7.724;2024-01-30T13:42:26;9.52;;;5.70;;
39264;SDS011;42646;51.910;7.724;2024-01-30T13:44:53;9.20;;;5.97;;
39264;SDS011;42646;51.910;7.724;2024-01-30T13:47:21;10.27;;;5.85;;
39264;SDS011;42646;51.910;7.724;2024-01-30T13:49:49;9.65;;;5.97;;
39264;SDS011;42646;51.910;7.724;2024-01-30T13:52:19;8.82;;;5.40;;
39264;SDS011;42646;51.910;7.724;2024-01-30T13:54:51;12.10;;;7.32;;
39264;SDS011;42646;51.910;7.724;2024-01-30T13:57:19;14.32;;;7.18;;
39264;SDS011;42646;51.910;7.724;2024-01-30T13:59:48;13.07;;;7.10;;
39264;SDS011;42646;51.910;7.724;2024-01-30T14:02:15;13.63;;;8.27;;
39264;SDS011;42646;51.910;7.724;2024-01-30T14:04:43;11.45;;;6.60;;
39264;SDS011;42646;51.910;7.724;2024-01-30T14:07:11;9.25;;;5.88;;
39264;SDS011;42646;51.910;7.724;2024-01-30T14:09:39;10.50;;;5.95;;
39264;SDS011;42646;51.910;7.724;2024-01-30T14:12:07;9.55;;;5.97;;
39264;SDS011;42646;51.910;7.724;2024-01-30T14:14:35;12.43;;;6.35;;
39264;SDS011;42646;51.910;7.724;2024-01-30T14:17:04;8.25;;;5.43;;
39264;SDS011;42646;51.910;7.724;2024-01-30T14:19:34;11.23;;;6.18;;
39264;SDS011;42646;51.910;7.724;2024-01-30T14:22:02;9.63;;;5.82;;
39264;SDS011;42646;51.910;7.724;2024-01-30T14:24:30;9.02;;;5.47;;
39264;SDS011;42646;51.910;7.724;2024-01-30T14:26:58;9.23;;;5.90;;
39264;SDS011;42646;51.910;7.724;2024-01-30T14:29:26;8.35;;;6.10;;
39264;SDS011;42646;51.910;7.724;2024-01-30T14:31:54;8.63;;;6.07;;
39264;SDS011;42646;51.910;7.724;2024-01-30T14:34:24;11.55;;;6.20;;
39264;SDS011;42646;51.910;7.724;2024-01-30T14:36:52;10.45;;;5.93;;
39264;SDS011;42646;51.910;7.724;2024-01-30T14:39:20;9.80;;;5.88;;
39264;SDS011;42646;51.910;7.724;2024-01-30T14:41:48;9.75;;;6.28;;
39264;SDS011;42646;51.910;7.724;2024-01-30T14:44:16;9.70;;;5.90;;
39264;SDS011;42646;51.910;7.724;2024-01-30T14:46:43;9.25;;;5.88;;
39264;SDS011;42646;51.910;7.724;2024-01-30T14:49:11;10.70;;;6.20;;